Time;durP1;ratioP1;P1;durP2;ratioP2;P2;SDS_P1;SDS_P2;PMS_P1;PMS_P2;Temp;Humidity;BMP_temperature;BMP_pressure;BME280_temperature;BME280_humidity;BME280_pressure;Samples;Min_cycle;Max_cycle;Signal;HPM_P1;HPM_P2
2024/03/31 00:01:26;;;;;;;19.17;15.40;;;;;;;;;;5047316;28;20390;-57
2024/03/31 00:03:52;;;;;;;20.52;16.92;;;;;;;;;;5055396;28;20052;-57
2024/03/31 00:06:18;;;;;;;19.13;16.85;;;;;;;;;;5047422;28;20053;-57
2024/03/31 00:08:44;;;;;;;20.77;17.42;;;;;;;;;;5055766;28;20056;-57
2024/03/31 00:11:12;;;;;;;21.48;18.52;;;;;;;;;;5047297;28;20430;-57
2024/03/31 00:13:38;;;;;;;20.88;17.30;;;;;;;;;;5055208;28;20049;-57
2024/03/31 00:16:04;;;;;;;20.35;18.15;;;;;;;;;;5046933;28;20394;-57
2024/03/31 00:18:32;;;;;;;19.85;17.55;;;;;;;;;;5055663;28;20072;-57
2024/03/31 00:20:59;;;;;;;21.10;17.70;;;;;;;;;;5047949;28;20054;-57
2024/03/31 00:23:25;;;;;;;22.23;17.75;;;;;;;;;;5046312;28;20056;-57
2024/03/31 00:25:58;;;;;;;21.90;17.92;;;;;;;;;;5048472;28;20482;-57
2024/03/31 00:28:24;;;;;;;21.15;17.85;;;;;;;;;;5054741;28;20049;-57
2024/03/31 00:30:54;;;;;;;20.77;16.58;;;;;;;;;;5048659;28;20049;-57
2024/03/31 00:33:20;;;;;;;19.77;16.05;;;;;;;;;;5053993;28;20052;-57
2024/03/31 00:35:53;;;;;;;18.67;15.45;;;;;;;;;;5049141;28;20499;-57
2024/03/31 00:38:19;;;;;;;18.10;15.25;;;;;;;;;;5053937;28;20057;-57
2024/03/31 00:40:45;;;;;;;19.63;15.13;;;;;;;;;;5049277;28;20049;-57
2024/03/31 00:43:13;;;;;;;17.17;14.60;;;;;;;;;;5052400;28;20052;-57
2024/03/31 00:45:39;;;;;;;17.45;14.43;;;;;;;;;;5049744;28;20049;-57
2024/03/31 00:48:06;;;;;;;17.80;13.40;;;;;;;;;;5050639;28;20072;-57
2024/03/31 00:50:32;;;;;;;17.27;14.75;;;;;;;;;;5054849;28;20379;-57
2024/03/31 00:53:00;;;;;;;18.92;14.07;;;;;;;;;;5055072;28;20059;-57
2024/03/31 00:55:27;;;;;;;22.30;15.85;;;;;;;;;;5050793;28;20053;-57
2024/03/31 00:57:53;;;;;;;18.33;16.25;;;;;;;;;;5049761;28;20056;-57
2024/03/31 01:00:19;;;;;;;21.35;17.08;;;;;;;;;;5052125;28;20068;-57
2024/03/31 01:02:45;;;;;;;19.75;16.00;;;;;;;;;;5048785;28;20060;-57
2024/03/31 01:05:12;;;;;;;21.05;16.55;;;;;;;;;;5052887;28;20052;-57
2024/03/31 01:07:38;;;;;;;20.70;15.35;;;;;;;;;;5047511;28;20494;-57
2024/03/31 01:10:07;;;;;;;16.70;14.90;;;;;;;;;;5054013;28;20483;-57
2024/03/31 01:12:33;;;;;;;19.98;16.75;;;;;;;;;;5046839;28;20044;-57
2024/03/31 01:15:00;;;;;;;18.00;16.10;;;;;;;;;;5054272;28;20048;-57
2024/03/31 01:17:26;;;;;;;20.95;16.27;;;;;;;;;;5045911;28;20061;-57
2024/03/31 01:19:53;;;;;;;23.67;18.63;;;;;;;;;;5054228;28;20380;-57
2024/03/31 01:22:19;;;;;;;21.60;18.60;;;;;;;;;;5046192;28;20053;-57
2024/03/31 01:24:47;;;;;;;26.77;19.17;;;;;;;;;;5053553;28;20056;-57
2024/03/31 01:27:13;;;;;;;25.38;20.38;;;;;;;;;;5045903;28;20053;-57
2024/03/31 01:29:40;;;;;;;24.42;19.67;;;;;;;;;;5054252;28;20095;-57
2024/03/31 01:32:06;;;;;;;23.48;19.60;;;;;;;;;;5046258;28;20060;-57
2024/03/31 01:34:33;;;;;;;25.48;19.85;;;;;;;;;;5053694;28;20426;-57
2024/03/31 01:37:01;;;;;;;22.58;19.15;;;;;;;;;;5045907;28;20060;-57
2024/03/31 01:39:27;;;;;;;25.30;18.95;;;;;;;;;;5054113;28;20052;-57
2024/03/31 01:41:56;;;;;;;23.00;19.50;;;;;;;;;;5045938;28;20471;-57
2024/03/31 01:44:22;;;;;;;27.38;20.00;;;;;;;;;;5053695;28;20048;-57
2024/03/31 01:46:49;;;;;;;25.80;20.23;;;;;;;;;;5045592;28;20064;-57
2024/03/31 01:49:15;;;;;;;27.15;20.88;;;;;;;;;;5053599;28;20049;-57
2024/03/31 01:51:41;;;;;;;22.77;18.77;;;;;;;;;;5053810;28;20053;-57
2024/03/31 01:54:08;;;;;;;27.38;21.00;;;;;;;;;;5053798;28;20129;-57
2024/03/31 01:56:34;;;;;;;25.17;20.92;;;;;;;;;;5054253;28;20049;-56
2024/03/31 01:59:02;;;;;;;23.92;20.83;;;;;;;;;;5053406;28;20055;-57
2024/03/31 02:01:28;;;;;;;26.67;21.35;;;;;;;;;;5045450;28;20398;-57
2024/03/31 02:03:55;;;;;;;25.90;21.67;;;;;;;;;;5053257;28;20049;-57
2024/03/31 02:06:21;;;;;;;27.40;21.77;;;;;;;;;;5045070;28;20111;-57
2024/03/31 02:08:49;;;;;;;24.65;21.75;;;;;;;;;;5053075;28;20122;-57
2024/03/31 02:11:15;;;;;;;24.40;20.52;;;;;;;;;;5045140;28;20060;-57
2024/03/31 02:13:42;;;;;;;28.85;21.17;;;;;;;;;;5052788;28;20124;-57
2024/03/31 02:16:09;;;;;;;24.33;21.17;;;;;;;;;;5052728;28;20053;-57
2024/03/31 02:18:35;;;;;;;22.35;19.30;;;;;;;;;;5053585;28;20057;-57
2024/03/31 02:21:02;;;;;;;24.55;20.00;;;;;;;;;;5045009;28;20053;-57
2024/03/31 02:23:29;;;;;;;23.65;18.25;;;;;;;;;;5044698;28;20056;-57
2024/03/31 02:25:55;;;;;;;22.50;20.02;;;;;;;;;;5046008;28;20137;-57
2024/03/31 02:28:22;;;;;;;22.48;20.08;;;;;;;;;;5052332;28;20049;-57
2024/03/31 02:30:47;;;;;;;24.40;20.13;;;;;;;;;;5046458;28;20057;-57
2024/03/31 02:33:15;;;;;;;26.05;21.52;;;;;;;;;;5050900;28;20051;-57
2024/03/31 02:35:41;;;;;;;23.17;19.88;;;;;;;;;;5047192;28;20061;-57
2024/03/31 02:38:08;;;;;;;24.23;21.65;;;;;;;;;;5049700;28;20055;-57
2024/03/31 02:40:34;;;;;;;26.40;21.98;;;;;;;;;;5048585;28;20060;-57
2024/03/31 02:43:01;;;;;;;23.80;19.70;;;;;;;;;;5048981;28;20107;-57
2024/03/31 02:45:27;;;;;;;24.20;20.00;;;;;;;;;;5049305;28;20084;-57
2024/03/31 02:47:54;;;;;;;24.35;20.23;;;;;;;;;;5047605;28;20136;-57
2024/03/31 02:50:21;;;;;;;24.38;21.17;;;;;;;;;;5052791;28;20049;-57
2024/03/31 02:52:48;;;;;;;26.70;22.08;;;;;;;;;;5052338;28;20056;-57
2024/03/31 02:55:13;;;;;;;23.35;20.80;;;;;;;;;;5051217;28;20049;-57
2024/03/31 02:57:40;;;;;;;24.70;21.35;;;;;;;;;;5045760;28;20052;-57
2024/03/31 03:00:07;;;;;;;24.80;21.73;;;;;;;;;;5051469;28;20053;-57
2024/03/31 03:02:33;;;;;;;24.77;20.90;;;;;;;;;;5045065;28;20403;-57
2024/03/31 03:04:59;;;;;;;25.25;19.73;;;;;;;;;;5052266;28;20049;-57
2024/03/31 03:07:28;;;;;;;24.38;18.58;;;;;;;;;;5052694;28;20049;-57
2024/03/31 03:09:53;;;;;;;22.75;19.48;;;;;;;;;;5052577;28;20053;-57
2024/03/31 03:12:20;;;;;;;22.60;19.33;;;;;;;;;;5050825;28;20152;-57
2024/03/31 03:14:46;;;;;;;24.48;19.83;;;;;;;;;;5058962;28;20505;-57
2024/03/31 03:17:13;;;;;;;26.45;20.20;;;;;;;;;;5050973;28;20084;-57
2024/03/31 03:19:39;;;;;;;20.88;18.60;;;;;;;;;;5058702;28;20414;-57
2024/03/31 03:22:05;;;;;;;23.88;20.00;;;;;;;;;;5051022;28;20044;-57
2024/03/31 03:24:33;;;;;;;23.40;18.95;;;;;;;;;;5058978;28;20060;-57
2024/03/31 03:26:59;;;;;;;27.38;21.30;;;;;;;;;;5050362;28;20060;-57
2024/03/31 03:29:25;;;;;;;23.70;19.55;;;;;;;;;;5059127;28;20478;-58
2024/03/31 03:31:53;;;;;;;22.83;19.83;;;;;;;;;;5049604;28;20136;-57
2024/03/31 03:34:19;;;;;;;22.05;19.02;;;;;;;;;;5059449;28;20052;-57
2024/03/31 03:36:45;;;;;;;24.80;20.15;;;;;;;;;;5050850;28;20084;-57
2024/03/31 03:39:12;;;;;;;23.52;19.55;;;;;;;;;;5059339;28;20414;-57
2024/03/31 03:41:40;;;;;;;24.33;19.38;;;;;;;;;;5050524;28;20386;-57
2024/03/31 03:44:07;;;;;;;21.85;19.13;;;;;;;;;;5058465;28;20051;-57
2024/03/31 03:46:33;;;;;;;22.33;19.10;;;;;;;;;;5050508;28;20057;-57
2024/03/31 03:49:00;;;;;;;22.05;19.45;;;;;;;;;;5059048;28;20055;-58
2024/03/31 03:51:25;;;;;;;24.70;21.05;;;;;;;;;;5059150;28;20057;-57
2024/03/31 03:53:53;;;;;;;24.05;19.90;;;;;;;;;;5058997;28;20060;-57
2024/03/31 03:56:18;;;;;;;22.42;19.17;;;;;;;;;;5050431;28;20494;-57
2024/03/31 03:58:46;;;;;;;23.67;20.42;;;;;;;;;;5058437;28;20131;-57
2024/03/31 04:01:12;;;;;;;26.17;21.33;;;;;;;;;;5050727;28;20057;-58
2024/03/31 04:03:39;;;;;;;21.98;19.27;;;;;;;;;;5058267;28;20055;-58
2024/03/31 04:06:05;;;;;;;22.27;19.60;;;;;;;;;;5050172;28;20053;-58
2024/03/31 04:08:32;;;;;;;25.73;21.80;;;;;;;;;;5058645;28;20049;-58
2024/03/31 04:10:58;;;;;;;20.90;18.25;;;;;;;;;;5051191;28;20398;-58
2024/03/31 04:13:24;;;;;;;22.42;20.02;;;;;;;;;;5057759;28;20045;-57
2024/03/31 04:15:58;;;;;;;23.77;19.73;;;;;;;;;;5052100;28;20080;-58
2024/03/31 04:18:25;;;;;;;22.08;18.60;;;;;;;;;;5058233;28;20056;-57
2024/03/31 04:20:50;;;;;;;22.63;20.17;;;;;;;;;;5051911;28;20049;-58
2024/03/31 04:23:17;;;;;;;23.13;20.10;;;;;;;;;;5053008;28;20567;-58
2024/03/31 04:25:43;;;;;;;24.35;18.77;;;;;;;;;;5049842;28;20502;-57
2024/03/31 04:28:10;;;;;;;23.73;19.50;;;;;;;;;;5052553;28;20045;-58
2024/03/31 04:30:39;;;;;;;26.10;19.27;;;;;;;;;;5050753;28;20053;-58
2024/03/31 04:33:08;;;;;;;22.80;18.92;;;;;;;;;;5052006;28;20045;-58
2024/03/31 04:35:36;;;;;;;23.10;19.80;;;;;;;;;;5055670;28;20056;-57
2024/03/31 04:38:03;;;;;;;22.87;19.40;;;;;;;;;;5055198;28;20044;-58
2024/03/31 04:40:29;;;;;;;22.20;18.92;;;;;;;;;;5051520;28;20076;-57
2024/03/31 04:42:56;;;;;;;22.42;19.35;;;;;;;;;;5050271;28;20102;-58
2024/03/31 04:45:22;;;;;;;23.40;20.58;;;;;;;;;;5051809;28;20049;-58
2024/03/31 04:47:49;;;;;;;22.70;19.33;;;;;;;;;;5048877;28;20079;-58
2024/03/31 04:50:18;;;;;;;23.67;20.73;;;;;;;;;;5054394;28;20056;-58
2024/03/31 04:52:45;;;;;;;23.17;19.77;;;;;;;;;;5055083;28;20388;-58
2024/03/31 04:55:11;;;;;;;22.10;19.63;;;;;;;;;;5053145;28;20049;-57
2024/03/31 04:57:37;;;;;;;25.58;20.48;;;;;;;;;;5047355;28;20049;-58
2024/03/31 05:00:04;;;;;;;25.67;22.98;;;;;;;;;;5054731;28;20049;-57
2024/03/31 05:02:30;;;;;;;23.83;20.23;;;;;;;;;;5046584;28;20398;-58
2024/03/31 05:04:56;;;;;;;24.65;18.98;;;;;;;;;;5054034;28;20403;-58
2024/03/31 05:07:24;;;;;;;22.25;19.33;;;;;;;;;;5046693;28;20053;-58
2024/03/31 05:09:50;;;;;;;29.65;25.33;;;;;;;;;;5054470;28;20056;-58
2024/03/31 05:12:17;;;;;;;23.17;20.33;;;;;;;;;;5046357;28;20558;-58
2024/03/31 05:14:43;;;;;;;24.70;20.15;;;;;;;;;;5054239;28;20430;-57
2024/03/31 05:17:09;;;;;;;23.23;19.27;;;;;;;;;;5046295;28;20088;-58
2024/03/31 05:19:35;;;;;;;22.58;19.13;;;;;;;;;;5053842;28;20053;-58
2024/03/31 05:22:02;;;;;;;24.23;19.98;;;;;;;;;;5046064;28;20494;-57
2024/03/31 05:24:29;;;;;;;21.02;18.80;;;;;;;;;;5054091;28;20053;-58
2024/03/31 05:26:56;;;;;;;21.48;17.58;;;;;;;;;;5046075;28;20055;-58
2024/03/31 05:29:22;;;;;;;22.27;18.40;;;;;;;;;;5053851;28;20060;-58
2024/03/31 05:31:49;;;;;;;23.38;18.58;;;;;;;;;;5045595;28;20071;-58
2024/03/31 05:34:14;;;;;;;21.92;18.17;;;;;;;;;;5053746;28;20049;-58
2024/03/31 05:36:41;;;;;;;21.55;18.77;;;;;;;;;;5045653;28;20131;-58
2024/03/31 05:39:07;;;;;;;23.73;19.40;;;;;;;;;;5053504;28;20049;-58
2024/03/31 05:41:35;;;;;;;25.17;20.95;;;;;;;;;;5045587;28;20131;-58
2024/03/31 05:44:01;;;;;;;21.85;18.55;;;;;;;;;;5054199;28;20076;-57
2024/03/31 05:46:28;;;;;;;23.65;18.48;;;;;;;;;;5045333;28;20075;-58
2024/03/31 05:48:53;;;;;;;22.42;18.67;;;;;;;;;;5053306;28;20053;-58
2024/03/31 05:51:20;;;;;;;20.67;18.02;;;;;;;;;;5053584;28;20557;-58
2024/03/31 05:53:46;;;;;;;24.40;19.00;;;;;;;;;;5053506;28;20502;-58
2024/03/31 05:56:13;;;;;;;21.08;16.85;;;;;;;;;;5045568;28;20057;-58
2024/03/31 05:58:40;;;;;;;24.45;19.38;;;;;;;;;;5053225;28;20061;-58
2024/03/31 06:01:07;;;;;;;21.27;17.05;;;;;;;;;;5044958;28;20501;-58
2024/03/31 06:03:32;;;;;;;21.55;16.77;;;;;;;;;;5053320;28;20505;-58
2024/03/31 06:05:59;;;;;;;20.10;16.67;;;;;;;;;;5045606;28;20140;-58
2024/03/31 06:08:25;;;;;;;23.00;16.13;;;;;;;;;;5052820;28;20515;-58
2024/03/31 06:10:52;;;;;;;26.38;18.30;;;;;;;;;;5046432;28;20060;-58
2024/03/31 06:13:18;;;;;;;23.05;16.17;;;;;;;;;;5051452;28;20053;-58
2024/03/31 06:15:47;;;;;;;19.48;15.35;;;;;;;;;;5052771;28;20441;-58
2024/03/31 06:18:12;;;;;;;17.65;15.20;;;;;;;;;;5053224;28;20059;-58
2024/03/31 06:20:39;;;;;;;19.48;15.43;;;;;;;;;;5048044;28;20132;-57
2024/03/31 06:23:05;;;;;;;20.90;15.35;;;;;;;;;;5049928;28;20056;-58
2024/03/31 06:25:32;;;;;;;17.23;13.90;;;;;;;;;;5048414;28;20052;-58
2024/03/31 06:27:57;;;;;;;18.85;14.32;;;;;;;;;;5048707;28;20056;-58
2024/03/31 06:30:24;;;;;;;20.65;13.73;;;;;;;;;;5049439;28;20049;-58
2024/03/31 06:32:51;;;;;;;20.33;13.77;;;;;;;;;;5047146;28;20432;-58
2024/03/31 06:35:18;;;;;;;17.75;12.60;;;;;;;;;;5050436;28;20422;-58
2024/03/31 06:37:44;;;;;;;16.35;12.63;;;;;;;;;;5046383;28;20076;-58
2024/03/31 06:40:11;;;;;;;18.55;12.13;;;;;;;;;;5051707;28;20470;-57
2024/03/31 06:42:36;;;;;;;16.00;11.88;;;;;;;;;;5045648;28;20053;-58
2024/03/31 06:45:03;;;;;;;16.33;10.45;;;;;;;;;;5051687;28;20132;-57
2024/03/31 06:47:29;;;;;;;17.70;9.98;;;;;;;;;;5044328;28;20065;-58
2024/03/31 06:49:57;;;;;;;11.25;6.05;;;;;;;;;;5052576;28;20175;-58
2024/03/31 06:52:23;;;;;;;7.95;4.20;;;;;;;;;;5053008;28;20440;-58
2024/03/31 06:54:50;;;;;;;9.88;5.82;;;;;;;;;;5051887;28;20135;-58
2024/03/31 06:57:16;;;;;;;10.32;5.78;;;;;;;;;;5044246;28;20398;-58
2024/03/31 06:59:43;;;;;;;7.43;4.70;;;;;;;;;;5052037;28;20132;-58
2024/03/31 07:02:08;;;;;;;10.23;4.32;;;;;;;;;;5044344;28;20061;-58
2024/03/31 07:04:35;;;;;;;6.97;4.28;;;;;;;;;;5052184;28;20057;-58
2024/03/31 07:07:03;;;;;;;10.20;3.53;;;;;;;;;;5044598;28;20049;-58
2024/03/31 07:09:29;;;;;;;10.60;3.75;;;;;;;;;;5052162;28;20067;-58
2024/03/31 07:11:55;;;;;;;9.30;3.53;;;;;;;;;;5044545;28;20060;-58
2024/03/31 07:14:22;;;;;;;8.00;3.15;;;;;;;;;;5052270;28;20124;-59
2024/03/31 07:16:48;;;;;;;9.32;3.30;;;;;;;;;;5044271;28;20045;-58
2024/03/31 07:19:14;;;;;;;11.80;3.20;;;;;;;;;;5052321;28;20056;-58
2024/03/31 07:21:40;;;;;;;9.35;3.13;;;;;;;;;;5043417;28;20057;-58
2024/03/31 07:24:09;;;;;;;7.47;2.20;;;;;;;;;;5051996;28;20072;-58
2024/03/31 07:26:35;;;;;;;9.18;2.58;;;;;;;;;;5043959;28;20052;-58
2024/03/31 07:29:02;;;;;;;8.13;2.53;;;;;;;;;;5051450;28;20052;-58
2024/03/31 07:31:28;;;;;;;5.35;2.10;;;;;;;;;;5044128;28;20053;-58
2024/03/31 07:33:54;;;;;;;6.43;2.15;;;;;;;;;;5051877;28;20055;-58
2024/03/31 07:36:20;;;;;;;5.93;1.83;;;;;;;;;;5044197;28;20052;-58
2024/03/31 07:38:47;;;;;;;6.65;1.80;;;;;;;;;;5051716;28;20132;-58
2024/03/31 07:41:14;;;;;;;9.10;2.10;;;;;;;;;;5044126;28;20057;-58
2024/03/31 07:43:41;;;;;;;8.70;2.03;;;;;;;;;;5052058;28;20053;-58
2024/03/31 07:46:07;;;;;;;5.47;1.77;;;;;;;;;;5043400;28;20045;-57
2024/03/31 07:48:33;;;;;;;5.00;1.92;;;;;;;;;;5052294;28;20049;-57
2024/03/31 07:50:59;;;;;;;6.70;1.90;;;;;;;;;;5052158;28;20061;-57
2024/03/31 07:53:26;;;;;;;6.82;1.80;;;;;;;;;;5051829;28;20103;-57
2024/03/31 07:55:58;;;;;;;7.47;1.80;;;;;;;;;;5045171;28;20467;-57
2024/03/31 07:58:26;;;;;;;4.70;2.20;;;;;;;;;;5054389;28;20053;-57
2024/03/31 08:00:52;;;;;;;6.70;2.28;;;;;;;;;;5048661;28;20403;-58
2024/03/31 08:03:19;;;;;;;5.68;2.10;;;;;;;;;;5053615;28;20074;-58
2024/03/31 08:05:44;;;;;;;6.43;2.47;;;;;;;;;;5049028;28;20056;-58
2024/03/31 08:08:12;;;;;;;5.70;2.13;;;;;;;;;;5053074;28;20553;-58
2024/03/31 08:10:37;;;;;;;6.70;2.22;;;;;;;;;;5050019;28;20502;-58
2024/03/31 08:13:04;;;;;;;7.30;2.85;;;;;;;;;;5051571;28;20052;-58
2024/03/31 08:15:32;;;;;;;8.45;2.78;;;;;;;;;;5051370;28;20049;-58
2024/03/31 08:17:58;;;;;;;7.15;2.70;;;;;;;;;;5050887;28;20056;-58
2024/03/31 08:20:24;;;;;;;10.15;2.35;;;;;;;;;;5052228;28;20498;-58
2024/03/31 08:22:51;;;;;;;6.28;2.20;;;;;;;;;;5049522;28;20053;-58
2024/03/31 08:25:17;;;;;;;5.40;2.38;;;;;;;;;;5052990;28;20060;-58
2024/03/31 08:27:43;;;;;;;7.85;2.03;;;;;;;;;;5048701;28;20052;-58
2024/03/31 08:30:10;;;;;;;8.73;2.30;;;;;;;;;;5054034;28;20060;-58
2024/03/31 08:32:38;;;;;;;7.38;2.08;;;;;;;;;;5047590;28;20071;-59
2024/03/31 08:35:04;;;;;;;11.20;2.17;;;;;;;;;;5054636;28;20411;-59
2024/03/31 08:37:31;;;;;;;6.68;1.85;;;;;;;;;;5055045;28;20056;-58
2024/03/31 08:39:57;;;;;;;8.45;2.35;;;;;;;;;;5054444;28;20049;-59
2024/03/31 08:42:29;;;;;;;8.35;2.30;;;;;;;;;;5046537;28;20049;-59
2024/03/31 08:44:56;;;;;;;7.90;1.92;;;;;;;;;;5054761;28;20068;-59
2024/03/31 08:47:26;;;;;;;8.15;2.25;;;;;;;;;;5045756;28;20418;-58
2024/03/31 08:49:54;;;;;;;5.80;2.03;;;;;;;;;;5054725;28;20490;-59
2024/03/31 08:52:21;;;;;;;7.32;2.33;;;;;;;;;;5054428;28;20061;-59
2024/03/31 08:54:47;;;;;;;9.77;1.98;;;;;;;;;;5054458;28;20052;-59
2024/03/31 08:57:14;;;;;;;6.70;1.70;;;;;;;;;;5046781;28;20055;-59
2024/03/31 08:59:40;;;;;;;6.88;2.03;;;;;;;;;;5054642;28;20057;-59
2024/03/31 09:02:11;;;;;;;8.57;2.22;;;;;;;;;;5045688;28;20055;-59
2024/03/31 09:04:37;;;;;;;7.13;1.95;;;;;;;;;;5054315;28;20391;-59
2024/03/31 09:07:05;;;;;;;10.10;1.88;;;;;;;;;;5046137;28;20106;-58
2024/03/31 09:09:31;;;;;;;6.88;2.03;;;;;;;;;;5053797;28;20049;-58
2024/03/31 09:11:57;;;;;;;6.60;1.83;;;;;;;;;;5046164;28;20173;-58
2024/03/31 09:14:23;;;;;;;9.13;2.33;;;;;;;;;;5054446;28;20383;-57
2024/03/31 09:16:50;;;;;;;7.05;2.33;;;;;;;;;;5046193;28;20056;-57
2024/03/31 09:19:16;;;;;;;4.43;1.35;;;;;;;;;;5054225;28;20053;-57
2024/03/31 09:21:43;;;;;;;6.88;1.58;;;;;;;;;;5045753;28;20059;-56
2024/03/31 09:24:11;;;;;;;8.30;2.10;;;;;;;;;;5053827;28;20049;-58
2024/03/31 09:26:38;;;;;;;10.10;2.17;;;;;;;;;;5045896;28;20053;-57
2024/03/31 09:29:03;;;;;;;7.13;1.48;;;;;;;;;;5054377;28;20490;-58
2024/03/31 09:31:31;;;;;;;6.97;1.95;;;;;;;;;;5045581;28;20056;-58
2024/03/31 09:33:56;;;;;;;5.68;1.60;;;;;;;;;;5054225;28;20064;-57
2024/03/31 09:36:23;;;;;;;8.60;1.50;;;;;;;;;;5045238;28;20049;-58
2024/03/31 09:38:50;;;;;;;5.05;1.60;;;;;;;;;;5053659;28;20060;-58
2024/03/31 09:41:18;;;;;;;7.85;2.00;;;;;;;;;;5045258;28;20471;-58
2024/03/31 09:43:44;;;;;;;5.30;1.90;;;;;;;;;;5053763;28;20053;-58
2024/03/31 09:46:12;;;;;;;7.20;1.60;;;;;;;;;;5044602;28;20064;-58
2024/03/31 09:48:40;;;;;;;4.97;1.55;;;;;;;;;;5053642;28;20064;-58
2024/03/31 09:51:11;;;;;;;7.78;1.98;;;;;;;;;;5053117;28;20052;-58
2024/03/31 09:53:39;;;;;;;5.85;1.83;;;;;;;;;;5053651;28;20470;-57
2024/03/31 09:56:08;;;;;;;7.57;1.75;;;;;;;;;;5053720;28;20075;-58
2024/03/31 09:58:36;;;;;;;4.70;1.30;;;;;;;;;;5053166;28;20418;-58
2024/03/31 10:01:04;;;;;;;6.30;1.60;;;;;;;;;;5053246;28;20060;-58
2024/03/31 10:03:33;;;;;;;6.07;1.48;;;;;;;;;;5053008;28;20053;-58
2024/03/31 10:06:00;;;;;;;6.47;1.40;;;;;;;;;;5045309;28;20049;-58
2024/03/31 10:08:29;;;;;;;4.80;1.60;;;;;;;;;;5052977;28;20053;-58
2024/03/31 10:10:57;;;;;;;5.10;1.55;;;;;;;;;;5045690;28;20053;-58
2024/03/31 10:13:25;;;;;;;6.90;1.70;;;;;;;;;;5052271;28;20057;-58
2024/03/31 10:15:53;;;;;;;6.45;2.10;;;;;;;;;;5052913;28;20486;-58
2024/03/31 10:18:19;;;;;;;6.85;2.00;;;;;;;;;;5052926;28;20060;-58
2024/03/31 10:20:47;;;;;;;8.20;1.73;;;;;;;;;;5045979;28;20475;-59
2024/03/31 10:23:13;;;;;;;8.38;1.95;;;;;;;;;;5051132;28;20063;-59
2024/03/31 10:25:41;;;;;;;7.13;1.63;;;;;;;;;;5047833;28;20057;-59
2024/03/31 10:28:06;;;;;;;;;;;;;;;;;;5050165;28;20057;-58
2024/03/31 10:30:34;;;;;;;6.50;1.50;;;;;;;;;;5048815;28;19935;-59
2024/03/31 10:33:02;;;;;;;7.05;2.00;;;;;;;;;;5048925;28;20057;-59
2024/03/31 10:35:31;;;;;;;6.05;2.08;;;;;;;;;;5048480;28;20057;-59
2024/03/31 10:37:57;;;;;;;6.65;1.80;;;;;;;;;;5048405;28;20053;-59
2024/03/31 10:40:25;;;;;;;6.32;1.80;;;;;;;;;;5049648;28;20079;-59
2024/03/31 10:42:53;;;;;;;3.90;1.35;;;;;;;;;;5047695;28;20057;-59
2024/03/31 10:45:20;;;;;;;7.40;1.83;;;;;;;;;;5049787;28;20049;-59
2024/03/31 10:47:46;;;;;;;6.95;1.88;;;;;;;;;;5046477;28;20057;-59
2024/03/31 10:50:14;;;;;;;5.55;1.80;;;;;;;;;;5052240;28;20376;-59
2024/03/31 10:52:40;;;;;;;8.13;1.67;;;;;;;;;;5052567;28;20055;-59
2024/03/31 10:55:07;;;;;;;6.32;1.50;;;;;;;;;;5051348;28;20071;-59
2024/03/31 10:57:34;;;;;;;7.00;1.70;;;;;;;;;;5044644;28;20057;-59
2024/03/31 11:00:01;;;;;;;5.70;1.65;;;;;;;;;;5052335;28;20052;-59
2024/03/31 11:02:27;;;;;;;7.03;2.00;;;;;;;;;;5052226;28;20053;-59
2024/03/31 11:05:01;;;;;;;8.43;1.80;;;;;;;;;;5052450;28;20056;-59
2024/03/31 11:07:29;;;;;;;8.30;1.83;;;;;;;;;;5052246;28;20049;-59
2024/03/31 11:09:55;;;;;;;4.97;1.40;;;;;;;;;;5051849;28;20517;-59
2024/03/31 11:12:21;;;;;;;6.13;1.80;;;;;;;;;;5044321;28;20053;-58
2024/03/31 11:14:48;;;;;;;7.63;1.42;;;;;;;;;;5052434;28;20045;-57
2024/03/31 11:17:14;;;;;;;7.97;1.80;;;;;;;;;;5044302;28;20439;-58
2024/03/31 11:19:41;;;;;;;6.18;1.70;;;;;;;;;;5051666;28;20060;-57
2024/03/31 11:22:07;;;;;;;5.70;1.63;;;;;;;;;;5043984;28;20451;-57
2024/03/31 11:24:38;;;;;;;11.63;3.15;;;;;;;;;;5051643;28;20129;-57
2024/03/31 11:27:04;;;;;;;9.15;2.42;;;;;;;;;;5043895;28;20053;-58
2024/03/31 11:29:31;;;;;;;10.65;1.90;;;;;;;;;;5052067;28;20509;-58
2024/03/31 11:31:57;;;;;;;7.95;1.60;;;;;;;;;;5045109;28;20053;-58
2024/03/31 11:34:24;;;;;;;6.13;1.90;;;;;;;;;;5055705;28;20048;-58
2024/03/31 11:36:50;;;;;;;3.97;1.48;;;;;;;;;;5047951;28;20052;-57
2024/03/31 11:39:17;;;;;;;7.03;1.70;;;;;;;;;;5055768;28;20060;-57
2024/03/31 11:41:45;;;;;;;6.72;1.80;;;;;;;;;;5047631;28;20053;-58
2024/03/31 11:44:12;;;;;;;5.68;1.45;;;;;;;;;;5055982;28;20056;-58
2024/03/31 11:46:37;;;;;;;7.53;1.83;;;;;;;;;;5047596;28;20057;-58
2024/03/31 11:49:04;;;;;;;6.15;1.60;;;;;;;;;;5055413;28;20049;-58
2024/03/31 11:51:31;;;;;;;5.47;1.52;;;;;;;;;;5055867;28;20057;-58
2024/03/31 11:53:58;;;;;;;6.05;1.60;;;;;;;;;;5055397;28;20406;-58
2024/03/31 11:56:23;;;;;;;6.95;1.55;;;;;;;;;;5047258;28;20056;-58
2024/03/31 11:58:51;;;;;;;6.30;1.85;;;;;;;;;;5055554;28;20049;-58
2024/03/31 12:01:18;;;;;;;;;;;;;;;;;;5047802;28;20053;-58
2024/03/31 12:03:52;;;;;;;6.97;2.05;;;;;;;;;;5055656;28;19917;-58
2024/03/31 12:06:18;;;;;;;6.53;2.10;;;;;;;;;;5047648;28;20368;-58
2024/03/31 12:08:45;;;;;;;5.10;1.38;;;;;;;;;;5055410;28;20064;-57
2024/03/31 12:11:11;;;;;;;9.25;1.63;;;;;;;;;;5046988;28;20053;-57
2024/03/31 12:13:38;;;;;;;5.18;1.60;;;;;;;;;;5055217;28;20071;-57
2024/03/31 12:16:05;;;;;;;6.25;2.10;;;;;;;;;;5046669;28;20406;-57
2024/03/31 12:18:32;;;;;;;5.47;1.73;;;;;;;;;;5054892;28;20474;-57
2024/03/31 12:20:58;;;;;;;9.73;1.88;;;;;;;;;;5047304;28;20506;-57
2024/03/31 12:23:24;;;;;;;6.78;1.60;;;;;;;;;;5054501;28;20053;-57
2024/03/31 12:25:50;;;;;;;6.68;1.42;;;;;;;;;;5048066;28;20056;-58
2024/03/31 12:28:17;;;;;;;5.90;1.65;;;;;;;;;;5052859;28;20442;-58
2024/03/31 12:30:45;;;;;;;6.43;1.50;;;;;;;;;;5049274;28;20068;-58
2024/03/31 12:33:13;;;;;;;5.45;1.52;;;;;;;;;;5052602;28;20049;-58
2024/03/31 12:35:39;;;;;;;5.93;1.50;;;;;;;;;;5054724;28;20416;-57
2024/03/31 12:38:06;;;;;;;6.40;1.42;;;;;;;;;;5054438;28;20402;-57
2024/03/31 12:40:32;;;;;;;7.50;1.73;;;;;;;;;;5051050;28;20344;-58
2024/03/31 12:42:59;;;;;;;5.07;1.67;;;;;;;;;;5048595;28;20052;-58
2024/03/31 12:45:25;;;;;;;7.95;1.45;;;;;;;;;;5052007;28;20467;-57
2024/03/31 12:47:52;;;;;;;5.03;1.55;;;;;;;;;;5048824;28;20092;-57
2024/03/31 12:50:20;;;;;;;6.68;1.65;;;;;;;;;;5054408;28;20523;-57
2024/03/31 12:52:47;;;;;;;;;;;;;;;;;;5055199;28;20060;-57
2024/03/31 12:55:13;;;;;;;5.40;1.27;;;;;;;;;;5053084;28;20370;-57
2024/03/31 12:57:40;;;;;;;5.43;1.50;;;;;;;;;;5047185;28;20049;-57
2024/03/31 13:00:09;;;;;;;9.50;1.73;;;;;;;;;;5054073;28;20057;-57
2024/03/31 13:02:36;;;;;;;4.43;1.65;;;;;;;;;;5047291;28;20386;-58
2024/03/31 13:05:01;;;;;;;6.35;1.67;;;;;;;;;;5054518;28;20053;-58
2024/03/31 13:07:30;;;;;;;8.15;1.80;;;;;;;;;;5053878;28;20386;-57
2024/03/31 13:09:55;;;;;;;;;;;;;;;;;;5054547;28;20072;-58
2024/03/31 13:12:22;;;;;;;7.35;1.60;;;;;;;;;;5046694;28;19916;-58
2024/03/31 13:14:49;;;;;;;7.53;2.05;;;;;;;;;;5053749;28;20056;-58
2024/03/31 13:17:16;;;;;;;8.02;1.83;;;;;;;;;;5045575;28;20053;-58
2024/03/31 13:19:42;;;;;;;8.25;2.03;;;;;;;;;;5053612;28;20053;-58
2024/03/31 13:22:09;;;;;;;9.30;1.77;;;;;;;;;;5045838;28;20437;-58
2024/03/31 13:24:36;;;;;;;8.02;1.77;;;;;;;;;;5053629;28;20053;-58
2024/03/31 13:27:03;;;;;;;7.90;1.55;;;;;;;;;;5045537;28;20053;-58
2024/03/31 13:29:29;;;;;;;5.55;1.80;;;;;;;;;;5053758;28;20059;-58
2024/03/31 13:31:56;;;;;;;7.22;1.42;;;;;;;;;;5045539;28;20474;-57
2024/03/31 13:34:22;;;;;;;7.47;1.60;;;;;;;;;;5053479;28;20411;-58
2024/03/31 13:36:49;;;;;;;11.07;2.08;;;;;;;;;;5045210;28;20084;-58
2024/03/31 13:39:15;;;;;;;10.00;1.90;;;;;;;;;;5053261;28;20410;-58
2024/03/31 13:41:43;;;;;;;6.30;1.65;;;;;;;;;;5045223;28;20080;-58
2024/03/31 13:44:09;;;;;;;7.95;1.80;;;;;;;;;;5053164;28;20057;-58
2024/03/31 13:46:35;;;;;;;6.30;1.33;;;;;;;;;;5044629;28;20052;-58
2024/03/31 13:49:01;;;;;;;6.10;1.50;;;;;;;;;;5053052;28;20060;-58
2024/03/31 13:51:28;;;;;;;7.05;1.58;;;;;;;;;;5053028;28;20053;-58
2024/03/31 13:53:54;;;;;;;9.40;1.75;;;;;;;;;;5052765;28;20068;-58
2024/03/31 13:56:21;;;;;;;8.73;1.83;;;;;;;;;;5044746;28;20049;-57
2024/03/31 13:58:48;;;;;;;5.88;1.42;;;;;;;;;;5053369;28;20053;-58
2024/03/31 14:01:15;;;;;;;5.93;1.65;;;;;;;;;;5053426;28;20375;-57
2024/03/31 14:03:40;;;;;;;10.27;1.70;;;;;;;;;;5053005;28;20060;-58
2024/03/31 14:06:07;;;;;;;8.20;2.00;;;;;;;;;;5044643;28;20647;-58
2024/03/31 14:08:33;;;;;;;4.85;1.63;;;;;;;;;;5053022;28;20052;-58
2024/03/31 14:11:00;;;;;;;7.82;1.90;;;;;;;;;;5045004;28;20051;-58
2024/03/31 14:13:26;;;;;;;5.57;1.30;;;;;;;;;;5052804;28;20383;-58
2024/03/31 14:15:54;;;;;;;4.47;1.30;;;;;;;;;;5045992;28;20103;-58
2024/03/31 14:18:20;;;;;;;4.50;1.60;;;;;;;;;;5051490;28;20044;-58
2024/03/31 14:20:47;;;;;;;8.25;1.85;;;;;;;;;;5047015;28;20049;-57
2024/03/31 14:23:13;;;;;;;5.05;1.58;;;;;;;;;;5050974;28;20057;-58
2024/03/31 14:25:40;;;;;;;6.13;1.48;;;;;;;;;;5047881;28;20454;-58
2024/03/31 14:28:05;;;;;;;5.55;1.30;;;;;;;;;;5049071;28;20071;-58